MONTHLY CLIMATOLOGICAL SUMMARY for SEP. 2017

NAME: Alresford Weather   CITY:  STATE: 
ELEV: 0 LAT: 050:05:15 LONG: 0001:10:11

                            TEMPERATURE ( C), RAIN (mm), WIND SPEED (mph)

                                               HEAT     COOL           AVG
      MEAN                                     DEG      DEG            WIND                       DOM
DAY   TEMP    HIGH   TIME     LOW    TIME      DAYS     DAYS    RAIN   SPEED    HIGH    TIME      DIR
----------------------------------------------------------------------------------------------------------------------------------------------------------
01   -00.5   -00.5   00:00   -00.5   00:00     18.8     00.0   00.00   00.5     12.7    15:33      NW
02   -00.5   -00.5   00:00   -00.5   00:00     18.8     00.0   00.00   00.4     09.2    17:51      NW
03   -00.5   -00.5   00:00   -00.5   00:00     18.8     00.0   00.37   03.4     19.6    19:47     SSE
04   -00.5   -00.5   00:00   -00.5   00:00     18.8     00.0   00.01   01.3     12.7    17:49     SSW
05   -00.5   -00.5   00:00   -00.5   00:00     18.8     00.0   00.06   02.4     24.1    20:41      SW
06   -00.5   -00.5   00:00   -00.5   00:00     18.8     00.0   00.00   02.5     19.6    12:58      W 
07   -00.5   -00.5   00:00   -00.5   00:00     18.8     00.0   00.01   02.7     18.4    16:42     WSW
08   -00.5   -00.5   00:00   -00.5   00:00     18.8     00.0   00.21   03.5     18.4    12:31      SW
09   -00.5   -00.5   00:00   -00.5   00:00     18.8     00.0   00.11   01.9     21.9    14:54      W 
10   -00.5   -00.5   00:00   -00.5   00:00     18.8     00.0   00.15   03.8     31.1    14:27     WSW
11   -00.5   -00.5   00:00   -00.5   00:00     18.8     00.0   00.12   06.0     25.3    12:58     WSW
12   -00.5   -00.5   00:00   -00.5   00:00     18.8     00.0   00.15   04.2     25.3    23:14      SW
13   -00.5   -00.5   00:00   -00.5   00:00     18.8     00.0   00.06   06.3     27.6    03:14     WSW
14   -00.5   -00.5   00:00   -00.5   00:00     18.8     00.0   00.17   02.7     26.4    15:53      W 
15   -00.5   -00.5   00:00   -00.5   00:00     18.8     00.0   00.02   00.5     11.5    14:40     WNW
16   -00.5   -00.5   00:00   -00.5   00:00     18.8     00.0   00.02   00.2     10.3    11:51      NW
17   -00.5   -00.5   00:00   -00.5   00:00     18.8     00.0   00.02   00.2     10.3    15:53      NW
18   -00.5   -00.5   00:00   -00.5   00:00     18.8     00.0   00.02   01.0     12.7    19:13      NW
19   -00.5   -00.5   00:00   -00.5   00:00     18.8     00.0   00.02   00.2     08.1    17:43     WSW
20   -00.5   -00.5   00:00   -00.5   00:00     18.8     00.0   00.01   01.1     19.6    14:10      SW
21   -00.5   -00.5   00:00   -00.5   00:00     18.8     00.0   00.00   01.7     14.9    10:27      S 
22   -00.5   -00.5   00:00   -00.5   00:00     18.8     00.0   00.01   01.0     14.9    15:02     WSW
23   -00.5   -00.5   00:00   -00.5   00:00     18.8     00.0   00.00   01.8     16.1    15:18     SSE
24   -00.5   -00.5   00:00   -00.5   00:00     18.8     00.0   00.00   01.7     16.1    14:37      SE
25   -00.5   -00.5   00:00   -00.5   00:00     18.8     00.0   00.01   00.0     04.6    14:50      SE
26   -00.5   -00.5   00:00   -00.5   00:00     18.8     00.0   00.01   00.0     00.0    00:00     ESE
27   -00.5   -00.5   00:00   -00.5   00:00     18.8     00.0   00.00   02.0     16.1    19:22      SE
28   -00.5   -00.5   00:00   -00.5   00:00     18.8     00.0   00.01   01.5     12.7    00:00     SSW
29   -00.5   -00.5   00:00   -00.5   00:00     18.8     00.0   00.01   01.8     16.1    02:34      SW
30   -00.5   -00.5   00:00   -00.5   00:00     18.8     00.0   00.02   01.6     18.4    23:40     SSW
----------------------------------------------------------------------------------------------------------------------------------------------------------
-0.5 (-0.5)  -00.5  day 30    -00.5  day 30   564.9    000.0   01.60   01.9     31.1   day 13      SW
Max <=   0: 30
Min <=   30: 30
Max Rain: 0.37 ON 3-09-17
Days of Rain: 23 (> .008in) 7 (> .08in) 0 (> 0.8in)